createdAt,value
2023-03-10T00:02:48.037Z,32.14
2023-03-10T00:07:55.656Z,32.18
2023-03-10T00:13:03.090Z,32.20
2023-03-10T00:18:10.395Z,32.24
2023-03-10T00:23:17.800Z,32.27
2023-03-10T00:28:25.419Z,32.31
2023-03-10T00:33:35.296Z,32.36
2023-03-10T00:38:41.011Z,32.39
2023-03-10T00:43:48.471Z,32.45
2023-03-10T00:48:56.081Z,32.49
2023-03-10T00:54:06.676Z,32.52
2023-03-10T00:59:17.148Z,32.59
2023-03-10T01:04:24.686Z,32.61
2023-03-10T01:09:32.155Z,32.62
2023-03-10T01:14:39.636Z,32.67
2023-03-10T01:19:47.086Z,32.72
2023-03-10T01:24:54.511Z,32.76
2023-03-10T01:30:02.086Z,32.79
2023-03-10T01:35:09.403Z,32.83
2023-03-10T01:40:16.956Z,32.84
2023-03-10T01:45:24.280Z,32.87
2023-03-10T01:50:34.685Z,32.89
2023-03-10T01:55:42.193Z,32.86
2023-03-10T02:00:49.594Z,32.90
2023-03-10T02:05:56.802Z,32.87
2023-03-10T02:11:04.221Z,32.88
2023-03-10T02:16:11.661Z,32.86
2023-03-10T02:21:19.084Z,32.88
2023-03-10T02:26:26.429Z,32.88
2023-03-10T02:31:33.878Z,32.88
2023-03-10T02:36:41.121Z,32.93
2023-03-10T02:41:48.530Z,32.91
2023-03-10T02:46:55.933Z,32.94
2023-03-10T02:52:03.238Z,32.92
2023-03-10T02:57:10.542Z,32.87
2023-03-10T03:02:17.839Z,32.82
2023-03-10T03:07:25.066Z,32.92
2023-03-10T03:12:32.306Z,32.75
2023-03-10T03:17:39.699Z,32.86
2023-03-10T03:22:46.913Z,32.82
2023-03-10T03:27:54.183Z,32.85
2023-03-10T03:33:01.455Z,32.80
2023-03-10T03:38:08.647Z,33.03
2023-03-10T03:43:16.031Z,33.04
2023-03-10T03:48:23.356Z,33.06
2023-03-10T03:53:30.383Z,32.99
2023-03-10T03:58:37.594Z,32.98
2023-03-10T04:03:44.929Z,33.02
2023-03-10T04:08:52.076Z,32.87
2023-03-10T04:13:59.347Z,33.04
2023-03-10T04:19:06.560Z,33.08
2023-03-10T04:24:13.715Z,33.07
2023-03-10T04:29:20.942Z,32.97
2023-03-10T04:34:28.207Z,33.06
2023-03-10T04:39:35.336Z,33.19
2023-03-10T04:44:42.538Z,33.17
2023-03-10T04:49:49.972Z,33.15
2023-03-10T04:54:57.136Z,33.13
2023-03-10T05:00:04.424Z,33.13
2023-03-10T05:05:11.606Z,33.13
2023-03-10T05:10:18.770Z,33.15
2023-03-10T05:15:26.001Z,33.16
2023-03-10T05:20:33.285Z,33.26
2023-03-10T05:25:40.415Z,33.25
2023-03-10T05:30:47.614Z,33.25
2023-03-10T05:35:54.961Z,33.23
2023-03-10T05:41:02.088Z,33.20
2023-03-10T05:46:09.259Z,33.21
2023-03-10T05:51:16.537Z,33.21
2023-03-10T05:56:23.727Z,33.19
2023-03-10T06:01:30.905Z,33.24
2023-03-10T06:06:38.116Z,33.30
2023-03-10T06:11:45.768Z,33.27
2023-03-10T06:16:53.069Z,33.33
2023-03-10T06:22:00.169Z,33.37
2023-03-10T06:27:07.337Z,33.34
2023-03-10T06:32:14.570Z,33.34
2023-03-10T06:37:21.732Z,33.38
2023-03-10T06:42:28.927Z,33.31
2023-03-10T06:47:36.191Z,33.34
2023-03-10T06:52:43.378Z,33.14
2023-03-10T06:57:50.549Z,33.39
2023-03-10T07:02:57.737Z,33.40
2023-03-10T07:08:04.970Z,33.43
2023-03-10T07:13:12.134Z,33.42
2023-03-10T07:18:19.323Z,33.37
2023-03-10T07:23:26.627Z,33.33
2023-03-10T07:28:33.875Z,33.42
2023-03-10T07:33:41.150Z,33.30
2023-03-10T07:38:48.359Z,33.36
2023-03-10T07:43:55.517Z,33.46
2023-03-10T07:49:02.801Z,33.59
2023-03-10T07:54:10.052Z,33.62
2023-03-10T07:59:17.359Z,33.57
2023-03-10T08:04:24.831Z,33.57
2023-03-10T08:09:31.851Z,34.00
2023-03-10T08:14:39.180Z,34.01
2023-03-10T08:19:46.193Z,34.33
2023-03-10T08:24:53.399Z,34.39
2023-03-10T08:30:00.689Z,34.44
2023-03-10T08:35:07.855Z,34.26
2023-03-10T08:40:15.066Z,34.20
2023-03-10T08:45:22.253Z,34.32
2023-03-10T08:50:29.532Z,35.17
2023-03-10T08:55:36.850Z,35.39
2023-03-10T09:00:44.055Z,35.29
2023-03-10T09:05:51.205Z,35.77
2023-03-10T09:10:58.463Z,35.73
2023-03-10T09:16:05.744Z,35.56
2023-03-10T09:21:12.849Z,35.73
2023-03-10T09:26:20.210Z,35.92
2023-03-10T09:31:27.356Z,34.76
2023-03-10T09:36:34.625Z,34.92
2023-03-10T09:41:41.917Z,36.14
2023-03-10T09:46:49.156Z,34.68
2023-03-10T09:51:56.448Z,34.84
2023-03-10T09:57:03.735Z,35.34
2023-03-10T10:02:10.978Z,35.34
2023-03-10T10:07:18.183Z,34.70
2023-03-10T10:12:25.389Z,35.81
2023-03-10T10:17:35.371Z,35.65
2023-03-10T10:22:39.731Z,34.77
2023-03-10T10:27:47.047Z,34.77
2023-03-10T10:32:54.495Z,35.97
2023-03-10T10:38:01.499Z,35.55
2023-03-10T10:43:08.770Z,34.97
2023-03-10T10:48:16.039Z,34.81
2023-03-10T10:53:23.221Z,34.55
2023-03-10T10:58:30.461Z,34.41
2023-03-10T11:03:37.729Z,34.42
2023-03-10T11:08:44.896Z,34.52
2023-03-10T11:13:52.250Z,34.42
2023-03-10T11:18:59.499Z,34.52
2023-03-10T11:24:06.852Z,34.50
2023-03-10T11:29:14.228Z,34.60
2023-03-10T11:34:21.476Z,34.75
2023-03-10T11:39:28.777Z,34.60
2023-03-10T11:44:36.222Z,34.87
2023-03-10T11:49:43.573Z,34.97
2023-03-10T11:54:50.830Z,35.00
2023-03-10T11:59:58.064Z,35.10
2023-03-10T12:05:05.363Z,34.83
2023-03-10T12:10:12.652Z,34.56
2023-03-10T12:15:20.056Z,34.44
2023-03-10T12:20:27.163Z,34.49
2023-03-10T12:25:34.362Z,34.43
2023-03-10T12:30:41.572Z,34.44
2023-03-10T12:35:48.948Z,34.48
2023-03-10T12:40:56.305Z,34.62
2023-03-10T12:46:03.515Z,34.53
2023-03-10T12:51:10.669Z,34.52
2023-03-10T12:56:17.854Z,34.45
2023-03-10T13:01:25.199Z,34.45
2023-03-10T13:06:32.336Z,34.43
2023-03-10T13:11:39.611Z,34.44
2023-03-10T13:16:46.960Z,34.60
2023-03-10T13:21:54.323Z,34.66
2023-03-10T13:27:01.403Z,34.81
2023-03-10T13:32:08.889Z,34.62
2023-03-10T13:37:16.010Z,34.75
2023-03-10T13:42:28.377Z,34.58
2023-03-10T13:47:30.555Z,34.51
2023-03-10T13:52:37.748Z,34.68
2023-03-10T13:57:45.051Z,34.51
2023-03-10T14:02:52.345Z,34.58
2023-03-10T14:07:59.561Z,34.55
2023-03-10T14:13:06.775Z,34.71
2023-03-10T14:18:14.042Z,34.66
2023-03-10T14:23:21.307Z,34.53
2023-03-10T14:28:28.640Z,34.57
2023-03-10T14:33:35.901Z,34.77
2023-03-10T14:38:43.114Z,34.85
2023-03-10T14:43:50.604Z,34.84
2023-03-10T14:48:57.986Z,34.96
2023-03-10T14:54:05.310Z,34.94
2023-03-10T14:59:12.742Z,34.98
2023-03-10T15:04:20.190Z,35.07
2023-03-10T15:09:27.635Z,35.10
2023-03-10T15:14:35.098Z,35.03
2023-03-10T15:19:42.818Z,35.02
2023-03-10T15:24:50.359Z,35.02
2023-03-10T15:29:57.770Z,35.10
2023-03-10T15:35:05.191Z,35.13
2023-03-10T15:40:12.576Z,35.13
2023-03-10T15:45:19.986Z,35.59
2023-03-10T15:50:30.087Z,35.48
2023-03-10T15:55:37.530Z,35.15
2023-03-10T16:00:53.674Z,34.90
2023-03-10T16:06:01.289Z,35.00
2023-03-10T16:11:08.580Z,34.97
2023-03-10T16:16:16.210Z,34.68
2023-03-10T16:21:23.401Z,34.82
2023-03-10T16:26:30.597Z,36.14
2023-03-10T16:31:38.158Z,37.00
2023-03-10T16:36:45.504Z,37.05
2023-03-10T16:41:52.687Z,36.92
2023-03-10T16:47:00.203Z,36.93
2023-03-10T16:52:07.648Z,37.03
2023-03-10T16:57:14.855Z,36.99
2023-03-10T17:02:22.056Z,37.00
2023-03-10T17:07:29.308Z,36.92
2023-03-10T17:12:36.741Z,36.68
2023-03-10T17:17:43.956Z,36.43
2023-03-10T17:22:51.218Z,36.18
2023-03-10T17:27:58.415Z,36.03
2023-03-10T17:33:05.634Z,35.92
2023-03-10T17:38:13.206Z,35.48
2023-03-10T17:43:33.410Z,35.34
2023-03-10T17:48:28.406Z,35.29
2023-03-10T17:53:35.692Z,34.97
2023-03-10T17:58:42.970Z,34.84
2023-03-10T18:03:50.556Z,34.78
2023-03-10T18:08:57.972Z,34.65
2023-03-10T18:14:05.238Z,34.59
2023-03-10T18:19:12.471Z,34.64
2023-03-10T18:24:19.712Z,34.87
2023-03-10T18:29:27.110Z,35.35
2023-03-10T18:34:34.787Z,35.42
2023-03-10T18:39:42.529Z,35.39
2023-03-10T18:44:50.232Z,34.79
2023-03-10T18:49:57.832Z,34.68
2023-03-10T18:55:05.624Z,34.68
2023-03-10T19:00:13.378Z,34.69
2023-03-10T19:05:20.989Z,34.65
2023-03-10T19:10:28.656Z,34.69
2023-03-10T19:15:36.220Z,34.77
2023-03-10T19:20:44.041Z,34.69
2023-03-10T19:25:51.506Z,34.71
2023-03-10T19:30:59.168Z,34.78
2023-03-10T19:36:06.946Z,34.76
2023-03-10T19:41:14.678Z,34.76
2023-03-10T19:46:22.213Z,34.80
2023-03-10T19:51:29.426Z,35.07
2023-03-10T19:56:37.013Z,34.92
2023-03-10T20:01:44.642Z,36.38
2023-03-10T20:06:52.082Z,34.95
2023-03-10T20:11:59.408Z,34.70
2023-03-10T20:17:06.976Z,34.63
2023-03-10T20:22:14.833Z,34.42
2023-03-10T20:27:22.540Z,34.35
2023-03-10T20:32:29.755Z,34.58
2023-03-10T20:37:37.138Z,34.47
2023-03-10T20:42:44.874Z,34.32
2023-03-10T20:47:52.673Z,34.23
2023-03-10T20:53:00.146Z,34.27
2023-03-10T20:58:07.365Z,34.29
2023-03-10T21:03:14.619Z,34.21
2023-03-10T21:08:22.105Z,34.11
2023-03-10T21:13:30.715Z,34.08
2023-03-10T21:18:38.058Z,33.94
2023-03-10T21:23:45.342Z,33.96
2023-03-10T21:28:52.610Z,33.94
2023-03-10T21:33:59.817Z,33.89
2023-03-10T21:39:07.211Z,34.03
2023-03-10T21:44:14.564Z,33.84
2023-03-10T21:49:21.809Z,33.56
2023-03-10T21:54:29.324Z,33.59
2023-03-10T21:59:36.658Z,33.49
2023-03-10T22:04:43.962Z,33.48
2023-03-10T22:09:51.296Z,33.64
2023-03-10T22:14:58.518Z,33.60
2023-03-10T22:20:05.746Z,34.12
2023-03-10T22:25:13.002Z,33.76
2023-03-10T22:30:20.390Z,33.72
2023-03-10T22:35:27.552Z,33.67
2023-03-10T22:40:34.763Z,33.68
2023-03-10T22:45:42.072Z,33.55
2023-03-10T22:50:49.284Z,33.38
2023-03-10T22:55:56.493Z,33.33
2023-03-10T23:01:04.077Z,33.28
2023-03-10T23:06:11.303Z,33.10
2023-03-10T23:11:18.535Z,33.04
2023-03-10T23:16:25.924Z,33.08
2023-03-10T23:21:33.019Z,32.94
2023-03-10T23:26:40.200Z,32.76
2023-03-10T23:31:47.523Z,32.98
2023-03-10T23:36:54.692Z,32.81
2023-03-10T23:42:02.042Z,32.73
2023-03-10T23:47:09.318Z,32.60
2023-03-10T23:52:16.549Z,32.49
2023-03-10T23:57:23.801Z,32.46
